sensor_id;sensor_type;location;lat;lon;timestamp;P1;durP1;ratioP1;P2;durP2;ratioP2
8098;SDS011;4092;47.876;9.372;2023-02-25T00:01:24;4.40;;;2.10;;
8098;SDS011;4092;47.876;9.372;2023-02-25T00:03:52;6.10;;;3.17;;
8098;SDS011;4092;47.876;9.372;2023-02-25T00:06:20;5.33;;;2.63;;
8098;SDS011;4092;47.876;9.372;2023-02-25T00:08:48;10.97;;;6.10;;
8098;SDS011;4092;47.876;9.372;2023-02-25T00:11:16;7.43;;;3.10;;
8098;SDS011;4092;47.876;9.372;2023-02-25T00:13:45;8.80;;;4.23;;
8098;SDS011;4092;47.876;9.372;2023-02-25T00:16:13;3.90;;;2.37;;
8098;SDS011;4092;47.876;9.372;2023-02-25T00:18:40;2.30;;;2.07;;
8098;SDS011;4092;47.876;9.372;2023-02-25T00:21:11;9.43;;;4.07;;
8098;SDS011;4092;47.876;9.372;2023-02-25T00:23:40;6.70;;;3.10;;
8098;SDS011;4092;47.876;9.372;2023-02-25T00:26:08;7.33;;;2.63;;
8098;SDS011;4092;47.876;9.372;2023-02-25T00:28:36;5.90;;;2.50;;
8098;SDS011;4092;47.876;9.372;2023-02-25T00:31:06;7.23;;;3.67;;
8098;SDS011;4092;47.876;9.372;2023-02-25T00:33:35;5.80;;;2.83;;
8098;SDS011;4092;47.876;9.372;2023-02-25T00:36:06;5.97;;;2.80;;
8098;SDS011;4092;47.876;9.372;2023-02-25T00:38:34;8.13;;;2.53;;
8098;SDS011;4092;47.876;9.372;2023-02-25T00:41:04;10.10;;;4.07;;
8098;SDS011;4092;47.876;9.372;2023-02-25T00:43:36;8.20;;;3.00;;
8098;SDS011;4092;47.876;9.372;2023-02-25T00:46:04;5.93;;;4.17;;
8098;SDS011;4092;47.876;9.372;2023-02-25T00:48:33;8.90;;;3.80;;
8098;SDS011;4092;47.876;9.372;2023-02-25T00:51:07;9.63;;;3.37;;
8098;SDS011;4092;47.876;9.372;2023-02-25T00:53:35;4.83;;;2.93;;
8098;SDS011;4092;47.876;9.372;2023-02-25T00:56:03;7.13;;;4.43;;
8098;SDS011;4092;47.876;9.372;2023-02-25T00:58:31;4.80;;;2.80;;
8098;SDS011;4092;47.876;9.372;2023-02-25T01:01:00;10.20;;;2.80;;
8098;SDS011;4092;47.876;9.372;2023-02-25T01:03:28;3.97;;;2.33;;
8098;SDS011;4092;47.876;9.372;2023-02-25T01:05:55;3.80;;;2.40;;
8098;SDS011;4092;47.876;9.372;2023-02-25T01:08:22;14.57;;;2.40;;
8098;SDS011;4092;47.876;9.372;2023-02-25T01:10:49;6.10;;;3.07;;
8098;SDS011;4092;47.876;9.372;2023-02-25T01:13:17;3.37;;;2.80;;
8098;SDS011;4092;47.876;9.372;2023-02-25T01:15:44;2.50;;;1.77;;
8098;SDS011;4092;47.876;9.372;2023-02-25T01:18:11;4.13;;;3.40;;
8098;SDS011;4092;47.876;9.372;2023-02-25T01:20:39;7.33;;;4.37;;
8098;SDS011;4092;47.876;9.372;2023-02-25T01:23:06;11.93;;;2.80;;
8098;SDS011;4092;47.876;9.372;2023-02-25T01:25:33;3.53;;;1.63;;
8098;SDS011;4092;47.876;9.372;2023-02-25T01:28:05;5.57;;;3.37;;
8098;SDS011;4092;47.876;9.372;2023-02-25T01:30:34;3.43;;;1.67;;
8098;SDS011;4092;47.876;9.372;2023-02-25T01:33:01;5.97;;;3.43;;
8098;SDS011;4092;47.876;9.372;2023-02-25T01:35:28;4.70;;;3.17;;
8098;SDS011;4092;47.876;9.372;2023-02-25T01:37:56;12.77;;;3.53;;
8098;SDS011;4092;47.876;9.372;2023-02-25T01:40:23;10.10;;;5.33;;
8098;SDS011;4092;47.876;9.372;2023-02-25T01:42:50;7.73;;;3.00;;
8098;SDS011;4092;47.876;9.372;2023-02-25T01:45:22;4.43;;;2.70;;
8098;SDS011;4092;47.876;9.372;2023-02-25T01:47:55;7.50;;;4.53;;
8098;SDS011;4092;47.876;9.372;2023-02-25T01:50:26;10.13;;;3.00;;
8098;SDS011;4092;47.876;9.372;2023-02-25T01:53:00;7.33;;;3.10;;
8098;SDS011;4092;47.876;9.372;2023-02-25T01:55:29;3.67;;;2.93;;
8098;SDS011;4092;47.876;9.372;2023-02-25T01:57:57;7.00;;;3.93;;
8098;SDS011;4092;47.876;9.372;2023-02-25T02:00:26;9.43;;;4.93;;
8098;SDS011;4092;47.876;9.372;2023-02-25T02:02:55;7.23;;;4.97;;
8098;SDS011;4092;47.876;9.372;2023-02-25T02:05:24;9.90;;;4.83;;
8098;SDS011;4092;47.876;9.372;2023-02-25T02:08:05;5.23;;;3.60;;
8098;SDS011;4092;47.876;9.372;2023-02-25T02:10:34;11.80;;;4.53;;
8098;SDS011;4092;47.876;9.372;2023-02-25T02:13:01;8.17;;;3.70;;
8098;SDS011;4092;47.876;9.372;2023-02-25T02:15:28;8.20;;;4.20;;
8098;SDS011;4092;47.876;9.372;2023-02-25T02:18:00;6.73;;;3.23;;
8098;SDS011;4092;47.876;9.372;2023-02-25T02:20:28;6.47;;;3.40;;
8098;SDS011;4092;47.876;9.372;2023-02-25T02:23:04;3.63;;;2.73;;
8098;SDS011;4092;47.876;9.372;2023-02-25T02:25:59;6.40;;;2.80;;
8098;SDS011;4092;47.876;9.372;2023-02-25T02:31:48;5.97;;;3.87;;
8098;SDS011;4092;47.876;9.372;2023-02-25T02:34:25;5.23;;;3.93;;
8098;SDS011;4092;47.876;9.372;2023-02-25T02:37:03;8.33;;;4.83;;
8098;SDS011;4092;47.876;9.372;2023-02-25T02:39:38;6.27;;;3.00;;
8098;SDS011;4092;47.876;9.372;2023-02-25T02:42:17;8.10;;;4.03;;
8098;SDS011;4092;47.876;9.372;2023-02-25T02:44:53;14.37;;;4.60;;
8098;SDS011;4092;47.876;9.372;2023-02-25T02:47:27;9.43;;;4.97;;
8098;SDS011;4092;47.876;9.372;2023-02-25T02:49:59;5.73;;;3.20;;
8098;SDS011;4092;47.876;9.372;2023-02-25T02:52:32;5.33;;;3.37;;
8098;SDS011;4092;47.876;9.372;2023-02-25T02:55:04;4.47;;;2.40;;
8098;SDS011;4092;47.876;9.372;2023-02-25T02:57:35;10.17;;;4.73;;
8098;SDS011;4092;47.876;9.372;2023-02-25T03:00:07;4.87;;;4.37;;
8098;SDS011;4092;47.876;9.372;2023-02-25T03:02:43;10.17;;;3.47;;
8098;SDS011;4092;47.876;9.372;2023-02-25T03:05:15;6.63;;;3.83;;
8098;SDS011;4092;47.876;9.372;2023-02-25T03:07:45;13.47;;;3.70;;
8098;SDS011;4092;47.876;9.372;2023-02-25T03:10:18;8.57;;;3.00;;
8098;SDS011;4092;47.876;9.372;2023-02-25T03:12:47;6.90;;;3.60;;
8098;SDS011;4092;47.876;9.372;2023-02-25T03:15:14;6.43;;;3.47;;
8098;SDS011;4092;47.876;9.372;2023-02-25T03:17:43;6.80;;;3.53;;
8098;SDS011;4092;47.876;9.372;2023-02-25T03:20:15;7.40;;;3.77;;
8098;SDS011;4092;47.876;9.372;2023-02-25T03:22:45;12.80;;;3.40;;
8098;SDS011;4092;47.876;9.372;2023-02-25T03:25:14;6.13;;;3.07;;
8098;SDS011;4092;47.876;9.372;2023-02-25T03:27:46;6.13;;;3.13;;
8098;SDS011;4092;47.876;9.372;2023-02-25T03:30:17;5.97;;;4.40;;
8098;SDS011;4092;47.876;9.372;2023-02-25T03:32:52;6.00;;;3.03;;
8098;SDS011;4092;47.876;9.372;2023-02-25T03:35:23;2.90;;;2.50;;
8098;SDS011;4092;47.876;9.372;2023-02-25T03:37:53;4.60;;;3.03;;
8098;SDS011;4092;47.876;9.372;2023-02-25T03:40:25;14.13;;;4.07;;
8098;SDS011;4092;47.876;9.372;2023-02-25T03:42:53;4.70;;;3.27;;
8098;SDS011;4092;47.876;9.372;2023-02-25T03:45:25;4.70;;;3.23;;
8098;SDS011;4092;47.876;9.372;2023-02-25T03:47:54;4.90;;;3.23;;
8098;SDS011;4092;47.876;9.372;2023-02-25T03:50:23;4.33;;;3.03;;
8098;SDS011;4092;47.876;9.372;2023-02-25T03:52:53;6.77;;;2.90;;
8098;SDS011;4092;47.876;9.372;2023-02-25T03:55:20;5.33;;;3.30;;
8098;SDS011;4092;47.876;9.372;2023-02-25T03:57:49;6.80;;;5.10;;
8098;SDS011;4092;47.876;9.372;2023-02-25T04:00:19;5.30;;;3.40;;
8098;SDS011;4092;47.876;9.372;2023-02-25T04:02:48;4.30;;;3.10;;
8098;SDS011;4092;47.876;9.372;2023-02-25T04:05:18;4.60;;;2.80;;
8098;SDS011;4092;47.876;9.372;2023-02-25T04:07:46;5.37;;;3.30;;
8098;SDS011;4092;47.876;9.372;2023-02-25T04:10:14;5.33;;;2.80;;
8098;SDS011;4092;47.876;9.372;2023-02-25T04:12:42;3.97;;;2.90;;
8098;SDS011;4092;47.876;9.372;2023-02-25T04:15:09;5.33;;;4.10;;
8098;SDS011;4092;47.876;9.372;2023-02-25T04:17:38;6.03;;;3.20;;
8098;SDS011;4092;47.876;9.372;2023-02-25T04:20:05;6.13;;;4.20;;
8098;SDS011;4092;47.876;9.372;2023-02-25T04:22:35;5.30;;;3.33;;
8098;SDS011;4092;47.876;9.372;2023-02-25T04:25:02;12.40;;;3.60;;
8098;SDS011;4092;47.876;9.372;2023-02-25T04:27:29;8.17;;;4.33;;
8098;SDS011;4092;47.876;9.372;2023-02-25T04:29:57;4.90;;;2.93;;
8098;SDS011;4092;47.876;9.372;2023-02-25T04:32:24;3.80;;;3.00;;
8098;SDS011;4092;47.876;9.372;2023-02-25T04:34:51;7.10;;;3.53;;
8098;SDS011;4092;47.876;9.372;2023-02-25T04:37:18;4.17;;;2.77;;
8098;SDS011;4092;47.876;9.372;2023-02-25T04:39:46;6.17;;;3.70;;
8098;SDS011;4092;47.876;9.372;2023-02-25T04:42:13;3.13;;;2.80;;
8098;SDS011;4092;47.876;9.372;2023-02-25T04:44:40;7.30;;;3.73;;
8098;SDS011;4092;47.876;9.372;2023-02-25T04:47:10;6.80;;;2.70;;
8098;SDS011;4092;47.876;9.372;2023-02-25T04:49:37;4.30;;;2.80;;
8098;SDS011;4092;47.876;9.372;2023-02-25T04:52:08;5.53;;;2.93;;
8098;SDS011;4092;47.876;9.372;2023-02-25T04:54:36;5.70;;;3.33;;
8098;SDS011;4092;47.876;9.372;2023-02-25T04:57:05;5.00;;;2.90;;
8098;SDS011;4092;47.876;9.372;2023-02-25T04:59:32;5.10;;;3.20;;
8098;SDS011;4092;47.876;9.372;2023-02-25T05:01:59;6.63;;;4.20;;
8098;SDS011;4092;47.876;9.372;2023-02-25T05:04:26;4.77;;;3.70;;
8098;SDS011;4092;47.876;9.372;2023-02-25T05:06:53;8.13;;;4.13;;
8098;SDS011;4092;47.876;9.372;2023-02-25T05:09:20;9.13;;;3.47;;
8098;SDS011;4092;47.876;9.372;2023-02-25T05:11:47;11.07;;;4.13;;
8098;SDS011;4092;47.876;9.372;2023-02-25T05:14:15;6.23;;;4.33;;
8098;SDS011;4092;47.876;9.372;2023-02-25T05:16:43;3.97;;;3.17;;
8098;SDS011;4092;47.876;9.372;2023-02-25T05:19:13;6.17;;;3.17;;
8098;SDS011;4092;47.876;9.372;2023-02-25T05:21:41;4.43;;;3.07;;
8098;SDS011;4092;47.876;9.372;2023-02-25T05:24:09;8.00;;;4.13;;
8098;SDS011;4092;47.876;9.372;2023-02-25T05:26:37;6.43;;;3.13;;
8098;SDS011;4092;47.876;9.372;2023-02-25T05:29:04;6.03;;;3.13;;
8098;SDS011;4092;47.876;9.372;2023-02-25T05:31:33;8.10;;;3.47;;
8098;SDS011;4092;47.876;9.372;2023-02-25T05:34:00;8.60;;;2.83;;
8098;SDS011;4092;47.876;9.372;2023-02-25T05:36:27;5.13;;;2.93;;
8098;SDS011;4092;47.876;9.372;2023-02-25T05:38:56;8.17;;;4.17;;
8098;SDS011;4092;47.876;9.372;2023-02-25T05:41:26;15.73;;;3.80;;
8098;SDS011;4092;47.876;9.372;2023-02-25T05:43:54;6.53;;;3.70;;
8098;SDS011;4092;47.876;9.372;2023-02-25T05:46:22;5.60;;;3.80;;
8098;SDS011;4092;47.876;9.372;2023-02-25T05:48:51;6.17;;;3.97;;
8098;SDS011;4092;47.876;9.372;2023-02-25T05:51:19;9.77;;;6.20;;
8098;SDS011;4092;47.876;9.372;2023-02-25T05:53:48;6.70;;;3.87;;
8098;SDS011;4092;47.876;9.372;2023-02-25T05:56:16;6.53;;;2.93;;
8098;SDS011;4092;47.876;9.372;2023-02-25T05:58:44;7.33;;;3.93;;
8098;SDS011;4092;47.876;9.372;2023-02-25T06:01:13;7.17;;;3.47;;
8098;SDS011;4092;47.876;9.372;2023-02-25T06:03:42;5.03;;;3.33;;
8098;SDS011;4092;47.876;9.372;2023-02-25T06:06:12;5.07;;;2.50;;
8098;SDS011;4092;47.876;9.372;2023-02-25T06:08:40;4.97;;;3.37;;
8098;SDS011;4092;47.876;9.372;2023-02-25T06:11:09;5.57;;;3.67;;
8098;SDS011;4092;47.876;9.372;2023-02-25T06:13:38;6.73;;;3.53;;
8098;SDS011;4092;47.876;9.372;2023-02-25T06:16:05;6.23;;;2.37;;
8098;SDS011;4092;47.876;9.372;2023-02-25T06:18:32;7.47;;;3.23;;
8098;SDS011;4092;47.876;9.372;2023-02-25T06:21:01;7.40;;;4.40;;
8098;SDS011;4092;47.876;9.372;2023-02-25T06:23:32;5.30;;;3.10;;
8098;SDS011;4092;47.876;9.372;2023-02-25T06:25:59;13.60;;;4.17;;
8098;SDS011;4092;47.876;9.372;2023-02-25T06:28:27;4.77;;;3.77;;
8098;SDS011;4092;47.876;9.372;2023-02-25T06:30:53;7.13;;;3.80;;
8098;SDS011;4092;47.876;9.372;2023-02-25T06:33:20;10.13;;;4.63;;
8098;SDS011;4092;47.876;9.372;2023-02-25T06:35:49;9.67;;;4.77;;
8098;SDS011;4092;47.876;9.372;2023-02-25T06:38:17;10.70;;;4.43;;
8098;SDS011;4092;47.876;9.372;2023-02-25T06:40:45;5.67;;;2.93;;
8098;SDS011;4092;47.876;9.372;2023-02-25T06:43:13;7.70;;;4.43;;
8098;SDS011;4092;47.876;9.372;2023-02-25T06:45:40;6.80;;;3.27;;
8098;SDS011;4092;47.876;9.372;2023-02-25T06:48:09;6.20;;;3.40;;
8098;SDS011;4092;47.876;9.372;2023-02-25T06:50:37;11.27;;;5.93;;
8098;SDS011;4092;47.876;9.372;2023-02-25T06:53:05;8.80;;;4.17;;
8098;SDS011;4092;47.876;9.372;2023-02-25T06:55:32;4.57;;;3.23;;
8098;SDS011;4092;47.876;9.372;2023-02-25T06:58:00;7.53;;;4.73;;
8098;SDS011;4092;47.876;9.372;2023-02-25T07:00:27;6.97;;;4.30;;
8098;SDS011;4092;47.876;9.372;2023-02-25T07:02:54;8.73;;;3.90;;
8098;SDS011;4092;47.876;9.372;2023-02-25T07:05:21;8.80;;;3.60;;
8098;SDS011;4092;47.876;9.372;2023-02-25T07:07:48;6.60;;;4.27;;
8098;SDS011;4092;47.876;9.372;2023-02-25T07:10:15;8.60;;;6.13;;
8098;SDS011;4092;47.876;9.372;2023-02-25T07:12:42;12.43;;;6.20;;
8098;SDS011;4092;47.876;9.372;2023-02-25T07:15:10;5.70;;;4.10;;
8098;SDS011;4092;47.876;9.372;2023-02-25T07:17:37;7.07;;;5.00;;
8098;SDS011;4092;47.876;9.372;2023-02-25T07:20:05;3.53;;;3.20;;
8098;SDS011;4092;47.876;9.372;2023-02-25T07:22:33;11.73;;;5.93;;
8098;SDS011;4092;47.876;9.372;2023-02-25T07:24:59;9.83;;;5.10;;
8098;SDS011;4092;47.876;9.372;2023-02-25T07:27:26;10.00;;;4.97;;
8098;SDS011;4092;47.876;9.372;2023-02-25T07:29:53;7.80;;;6.17;;
8098;SDS011;4092;47.876;9.372;2023-02-25T07:32:23;9.83;;;6.40;;
8098;SDS011;4092;47.876;9.372;2023-02-25T07:34:50;7.03;;;3.30;;
8098;SDS011;4092;47.876;9.372;2023-02-25T07:37:17;7.23;;;4.67;;
8098;SDS011;4092;47.876;9.372;2023-02-25T07:39:44;9.87;;;5.17;;
8098;SDS011;4092;47.876;9.372;2023-02-25T07:42:11;7.00;;;3.50;;
8098;SDS011;4092;47.876;9.372;2023-02-25T07:44:38;4.70;;;3.27;;
8098;SDS011;4092;47.876;9.372;2023-02-25T07:47:06;7.23;;;4.23;;
8098;SDS011;4092;47.876;9.372;2023-02-25T07:49:34;8.87;;;4.23;;
8098;SDS011;4092;47.876;9.372;2023-02-25T07:52:01;10.60;;;3.83;;
8098;SDS011;4092;47.876;9.372;2023-02-25T07:54:28;8.00;;;4.50;;
8098;SDS011;4092;47.876;9.372;2023-02-25T07:56:55;8.57;;;4.70;;
8098;SDS011;4092;47.876;9.372;2023-02-25T07:59:22;9.07;;;3.97;;
8098;SDS011;4092;47.876;9.372;2023-02-25T08:01:49;21.07;;;5.50;;
8098;SDS011;4092;47.876;9.372;2023-02-25T08:04:16;4.97;;;3.33;;
8098;SDS011;4092;47.876;9.372;2023-02-25T08:06:44;10.13;;;4.43;;
8098;SDS011;4092;47.876;9.372;2023-02-25T08:09:11;5.57;;;3.73;;
8098;SDS011;4092;47.876;9.372;2023-02-25T08:11:39;7.13;;;3.27;;
8098;SDS011;4092;47.876;9.372;2023-02-25T08:14:07;8.27;;;4.80;;
8098;SDS011;4092;47.876;9.372;2023-02-25T08:16:33;4.87;;;3.53;;
8098;SDS011;4092;47.876;9.372;2023-02-25T08:19:01;7.63;;;4.73;;
8098;SDS011;4092;47.876;9.372;2023-02-25T08:21:30;7.00;;;4.43;;
8098;SDS011;4092;47.876;9.372;2023-02-25T08:23:59;12.10;;;3.93;;
8098;SDS011;4092;47.876;9.372;2023-02-25T08:26:26;11.53;;;5.47;;
8098;SDS011;4092;47.876;9.372;2023-02-25T08:28:52;6.20;;;3.90;;
8098;SDS011;4092;47.876;9.372;2023-02-25T08:31:21;10.23;;;4.20;;
8098;SDS011;4092;47.876;9.372;2023-02-25T08:33:48;10.47;;;4.53;;
8098;SDS011;4092;47.876;9.372;2023-02-25T08:36:17;6.67;;;4.60;;
8098;SDS011;4092;47.876;9.372;2023-02-25T08:38:46;5.43;;;4.70;;
8098;SDS011;4092;47.876;9.372;2023-02-25T08:41:15;9.43;;;4.20;;
8098;SDS011;4092;47.876;9.372;2023-02-25T08:43:43;6.23;;;3.70;;
8098;SDS011;4092;47.876;9.372;2023-02-25T08:46:13;4.23;;;3.83;;
8098;SDS011;4092;47.876;9.372;2023-02-25T08:48:40;4.00;;;2.73;;
8098;SDS011;4092;47.876;9.372;2023-02-25T08:51:07;5.20;;;3.13;;
8098;SDS011;4092;47.876;9.372;2023-02-25T08:53:35;4.23;;;2.17;;
8098;SDS011;4092;47.876;9.372;2023-02-25T08:56:03;3.10;;;2.80;;
8098;SDS011;4092;47.876;9.372;2023-02-25T08:58:32;3.73;;;2.80;;
8098;SDS011;4092;47.876;9.372;2023-02-25T09:00:59;3.93;;;2.63;;
8098;SDS011;4092;47.876;9.372;2023-02-25T09:03:26;4.23;;;2.33;;
8098;SDS011;4092;47.876;9.372;2023-02-25T09:05:53;3.33;;;2.23;;
8098;SDS011;4092;47.876;9.372;2023-02-25T09:08:21;3.50;;;1.80;;
8098;SDS011;4092;47.876;9.372;2023-02-25T09:10:48;2.90;;;1.77;;
8098;SDS011;4092;47.876;9.372;2023-02-25T09:13:15;9.17;;;2.43;;
8098;SDS011;4092;47.876;9.372;2023-02-25T09:15:43;2.47;;;2.13;;
8098;SDS011;4092;47.876;9.372;2023-02-25T09:18:11;4.40;;;2.30;;
8098;SDS011;4092;47.876;9.372;2023-02-25T09:20:38;3.93;;;2.00;;
8098;SDS011;4092;47.876;9.372;2023-02-25T09:23:05;5.90;;;2.13;;
8098;SDS011;4092;47.876;9.372;2023-02-25T09:25:36;3.80;;;2.53;;
8098;SDS011;4092;47.876;9.372;2023-02-25T09:28:04;1.70;;;1.57;;
8098;SDS011;4092;47.876;9.372;2023-02-25T09:30:32;4.67;;;2.47;;
8098;SDS011;4092;47.876;9.372;2023-02-25T09:33:00;2.37;;;1.90;;
8098;SDS011;4092;47.876;9.372;2023-02-25T09:35:27;5.23;;;1.27;;
8098;SDS011;4092;47.876;9.372;2023-02-25T09:37:54;2.20;;;2.00;;
8098;SDS011;4092;47.876;9.372;2023-02-25T09:40:21;2.80;;;1.53;;
8098;SDS011;4092;47.876;9.372;2023-02-25T09:42:51;1.73;;;1.43;;
8098;SDS011;4092;47.876;9.372;2023-02-25T09:45:30;3.17;;;1.30;;
8098;SDS011;4092;47.876;9.372;2023-02-25T09:48:02;3.23;;;1.67;;
8098;SDS011;4092;47.876;9.372;2023-02-25T09:50:39;3.83;;;1.73;;
8098;SDS011;4092;47.876;9.372;2023-02-25T09:53:12;8.13;;;1.70;;
8098;SDS011;4092;47.876;9.372;2023-02-25T09:55:42;5.20;;;2.30;;
8098;SDS011;4092;47.876;9.372;2023-02-25T09:58:15;3.13;;;2.40;;
8098;SDS011;4092;47.876;9.372;2023-02-25T10:00:51;4.40;;;1.70;;
8098;SDS011;4092;47.876;9.372;2023-02-25T10:03:29;8.77;;;2.63;;
8098;SDS011;4092;47.876;9.372;2023-02-25T10:06:12;3.20;;;2.47;;
8098;SDS011;4092;47.876;9.372;2023-02-25T10:08:46;5.20;;;1.73;;
8098;SDS011;4092;47.876;9.372;2023-02-25T10:11:26;2.00;;;1.80;;
8098;SDS011;4092;47.876;9.372;2023-02-25T10:14:03;8.53;;;1.97;;
8098;SDS011;4092;47.876;9.372;2023-02-25T10:16:44;2.83;;;1.93;;
8098;SDS011;4092;47.876;9.372;2023-02-25T10:19:21;2.33;;;2.13;;
8098;SDS011;4092;47.876;9.372;2023-02-25T10:22:15;3.03;;;1.70;;
8098;SDS011;4092;47.876;9.372;2023-02-25T10:24:51;1.33;;;1.20;;
8098;SDS011;4092;47.876;9.372;2023-02-25T10:27:23;2.83;;;1.47;;
8098;SDS011;4092;47.876;9.372;2023-02-25T10:29:54;3.13;;;1.33;;
8098;SDS011;4092;47.876;9.372;2023-02-25T10:32:25;1.47;;;1.30;;
8098;SDS011;4092;47.876;9.372;2023-02-25T10:34:58;2.90;;;1.20;;
8098;SDS011;4092;47.876;9.372;2023-02-25T10:37:29;3.63;;;1.70;;
8098;SDS011;4092;47.876;9.372;2023-02-25T10:40:00;4.63;;;1.97;;
8098;SDS011;4092;47.876;9.372;2023-02-25T10:42:29;3.33;;;2.23;;
8098;SDS011;4092;47.876;9.372;2023-02-25T10:44:58;3.43;;;1.53;;
8098;SDS011;4092;47.876;9.372;2023-02-25T10:47:32;1.40;;;1.30;;
8098;SDS011;4092;47.876;9.372;2023-02-25T10:52:32;1.93;;;1.20;;
8098;SDS011;4092;47.876;9.372;2023-02-25T10:54:59;1.97;;;1.27;;
8098;SDS011;4092;47.876;9.372;2023-02-25T10:57:27;2.40;;;2.17;;
8098;SDS011;4092;47.876;9.372;2023-02-25T11:00:01;2.97;;;1.40;;
8098;SDS011;4092;47.876;9.372;2023-02-25T11:02:32;3.60;;;1.73;;
8098;SDS011;4092;47.876;9.372;2023-02-25T11:05:10;4.60;;;1.67;;
8098;SDS011;4092;47.876;9.372;2023-02-25T11:07:58;1.60;;;1.20;;
8098;SDS011;4092;47.876;9.372;2023-02-25T11:10:26;2.60;;;1.37;;
8098;SDS011;4092;47.876;9.372;2023-02-25T11:12:53;3.93;;;1.73;;
8098;SDS011;4092;47.876;9.372;2023-02-25T11:15:26;2.00;;;1.17;;
8098;SDS011;4092;47.876;9.372;2023-02-25T11:18:00;1.93;;;1.30;;
8098;SDS011;4092;47.876;9.372;2023-02-25T11:20:30;3.07;;;2.27;;
8098;SDS011;4092;47.876;9.372;2023-02-25T11:22:59;2.87;;;2.43;;
8098;SDS011;4092;47.876;9.372;2023-02-25T11:25:33;1.70;;;1.30;;
8098;SDS011;4092;47.876;9.372;2023-02-25T11:28:03;1.70;;;1.43;;
8098;SDS011;4092;47.876;9.372;2023-02-25T11:30:33;4.47;;;2.00;;
8098;SDS011;4092;47.876;9.372;2023-02-25T11:33:03;2.97;;;1.43;;
8098;SDS011;4092;47.876;9.372;2023-02-25T11:35:36;2.53;;;1.70;;
8098;SDS011;4092;47.876;9.372;2023-02-25T11:38:14;2.17;;;1.70;;
8098;SDS011;4092;47.876;9.372;2023-02-25T11:40:49;1.77;;;1.50;;
8098;SDS011;4092;47.876;9.372;2023-02-25T11:43:17;4.17;;;2.13;;
8098;SDS011;4092;47.876;9.372;2023-02-25T11:45:54;2.73;;;1.33;;
8098;SDS011;4092;47.876;9.372;2023-02-25T11:48:26;2.70;;;1.77;;
8098;SDS011;4092;47.876;9.372;2023-02-25T11:51:01;2.40;;;1.47;;
8098;SDS011;4092;47.876;9.372;2023-02-25T11:53:43;4.07;;;1.73;;
8098;SDS011;4092;47.876;9.372;2023-02-25T11:56:23;1.93;;;1.40;;
8098;SDS011;4092;47.876;9.372;2023-02-25T11:58:56;1.70;;;1.40;;
8098;SDS011;4092;47.876;9.372;2023-02-25T12:01:39;14.50;;;1.90;;
8098;SDS011;4092;47.876;9.372;2023-02-25T12:04:20;11.87;;;1.50;;
8098;SDS011;4092;47.876;9.372;2023-02-25T12:07:16;9.43;;;2.30;;
8098;SDS011;4092;47.876;9.372;2023-02-25T12:10:15;3.73;;;1.23;;
8098;SDS011;4092;47.876;9.372;2023-02-25T12:12:57;6.20;;;2.30;;
8098;SDS011;4092;47.876;9.372;2023-02-25T12:15:47;6.70;;;2.00;;
8098;SDS011;4092;47.876;9.372;2023-02-25T12:18:46;2.50;;;1.67;;
8098;SDS011;4092;47.876;9.372;2023-02-25T12:24:39;2.30;;;1.30;;
8098;SDS011;4092;47.876;9.372;2023-02-25T12:27:37;3.10;;;1.67;;
8098;SDS011;4092;47.876;9.372;2023-02-25T12:30:20;4.13;;;1.40;;
8098;SDS011;4092;47.876;9.372;2023-02-25T12:33:04;1.20;;;1.10;;
8098;SDS011;4092;47.876;9.372;2023-02-25T12:35:47;1.10;;;1.00;;
8098;SDS011;4092;47.876;9.372;2023-02-25T12:41:22;6.87;;;1.50;;
8098;SDS011;4092;47.876;9.372;2023-02-25T12:44:21;3.43;;;1.27;;
8098;SDS011;4092;47.876;9.372;2023-02-25T12:47:07;3.67;;;1.23;;
8098;SDS011;4092;47.876;9.372;2023-02-25T12:49:54;1.67;;;1.50;;
8098;SDS011;4092;47.876;9.372;2023-02-25T12:52:45;2.17;;;1.20;;
8098;SDS011;4092;47.876;9.372;2023-02-25T12:58:27;1.83;;;1.03;;
8098;SDS011;4092;47.876;9.372;2023-02-25T13:01:14;1.77;;;1.43;;
8098;SDS011;4092;47.876;9.372;2023-02-25T13:04:09;1.93;;;1.37;;
8098;SDS011;4092;47.876;9.372;2023-02-25T13:06:58;1.90;;;1.33;;
8098;SDS011;4092;47.876;9.372;2023-02-25T13:12:42;2.80;;;1.40;;
8098;SDS011;4092;47.876;9.372;2023-02-25T13:15:29;1.87;;;1.40;;
8098;SDS011;4092;47.876;9.372;2023-02-25T13:18:10;3.43;;;1.53;;
8098;SDS011;4092;47.876;9.372;2023-02-25T13:23:46;1.37;;;1.27;;
8098;SDS011;4092;47.876;9.372;2023-02-25T13:26:32;1.93;;;1.37;;
8098;SDS011;4092;47.876;9.372;2023-02-25T13:29:15;1.97;;;1.20;;
8098;SDS011;4092;47.876;9.372;2023-02-25T13:31:50;5.43;;;1.77;;
8098;SDS011;4092;47.876;9.372;2023-02-25T13:34:33;1.10;;;1.00;;
8098;SDS011;4092;47.876;9.372;2023-02-25T13:37:21;1.73;;;0.97;;
8098;SDS011;4092;47.876;9.372;2023-02-25T13:40:15;2.20;;;1.07;;
8098;SDS011;4092;47.876;9.372;2023-02-25T13:46:01;1.20;;;1.00;;
8098;SDS011;4092;47.876;9.372;2023-02-25T13:51:59;1.10;;;1.00;;
8098;SDS011;4092;47.876;9.372;2023-02-25T13:54:39;1.97;;;1.10;;
8098;SDS011;4092;47.876;9.372;2023-02-25T13:57:34;1.30;;;1.20;;
8098;SDS011;4092;47.876;9.372;2023-02-25T14:06:22;1.83;;;1.30;;
8098;SDS011;4092;47.876;9.372;2023-02-25T14:09:11;2.60;;;1.10;;
8098;SDS011;4092;47.876;9.372;2023-02-25T14:11:53;13.47;;;1.50;;
8098;SDS011;4092;47.876;9.372;2023-02-25T14:14:32;2.13;;;1.00;;
8098;SDS011;4092;47.876;9.372;2023-02-25T14:17:16;1.50;;;1.30;;
8098;SDS011;4092;47.876;9.372;2023-02-25T14:20:04;2.10;;;1.43;;
8098;SDS011;4092;47.876;9.372;2023-02-25T14:22:44;1.20;;;0.80;;
8098;SDS011;4092;47.876;9.372;2023-02-25T14:25:26;1.40;;;1.17;;
8098;SDS011;4092;47.876;9.372;2023-02-25T14:28:12;1.10;;;0.97;;
8098;SDS011;4092;47.876;9.372;2023-02-25T14:30:51;2.17;;;1.20;;
8098;SDS011;4092;47.876;9.372;2023-02-25T14:39:31;1.20;;;1.10;;
8098;SDS011;4092;47.876;9.372;2023-02-25T14:42:20;2.43;;;1.03;;
8098;SDS011;4092;47.876;9.372;2023-02-25T14:44:59;2.60;;;0.97;;
8098;SDS011;4092;47.876;9.372;2023-02-25T14:47:31;3.53;;;1.20;;
8098;SDS011;4092;47.876;9.372;2023-02-25T14:50:06;1.80;;;1.17;;
8098;SDS011;4092;47.876;9.372;2023-02-25T14:58:48;1.77;;;1.37;;
8098;SDS011;4092;47.876;9.372;2023-02-25T15:04:30;6.73;;;1.00;;
8098;SDS011;4092;47.876;9.372;2023-02-25T15:07:25;1.00;;;0.87;;
8098;SDS011;4092;47.876;9.372;2023-02-25T15:10:21;1.33;;;0.90;;
8098;SDS011;4092;47.876;9.372;2023-02-25T15:13:09;1.73;;;0.90;;
8098;SDS011;4092;47.876;9.372;2023-02-25T15:16:13;1.20;;;1.10;;
8098;SDS011;4092;47.876;9.372;2023-02-25T15:21:52;0.90;;;0.80;;
8098;SDS011;4092;47.876;9.372;2023-02-25T15:24:42;1.73;;;0.70;;
8098;SDS011;4092;47.876;9.372;2023-02-25T15:30:10;2.80;;;0.80;;
8098;SDS011;4092;47.876;9.372;2023-02-25T15:32:48;1.13;;;0.70;;
8098;SDS011;4092;47.876;9.372;2023-02-25T15:35:56;1.00;;;0.80;;
8098;SDS011;4092;47.876;9.372;2023-02-25T15:38:38;0.90;;;0.80;;
8098;SDS011;4092;47.876;9.372;2023-02-25T15:49:49;3.77;;;1.10;;
8098;SDS011;4092;47.876;9.372;2023-02-25T15:55:31;3.63;;;0.70;;
8098;SDS011;4092;47.876;9.372;2023-02-25T16:01:06;1.00;;;0.70;;
8098;SDS011;4092;47.876;9.372;2023-02-25T16:03:51;1.10;;;0.80;;
8098;SDS011;4092;47.876;9.372;2023-02-25T16:06:20;0.97;;;0.70;;
8098;SDS011;4092;47.876;9.372;2023-02-25T16:08:55;0.90;;;0.60;;
8098;SDS011;4092;47.876;9.372;2023-02-25T16:11:33;3.60;;;0.73;;
8098;SDS011;4092;47.876;9.372;2023-02-25T16:14:03;1.03;;;0.77;;
8098;SDS011;4092;47.876;9.372;2023-02-25T16:16:33;3.20;;;1.00;;
8098;SDS011;4092;47.876;9.372;2023-02-25T16:19:05;1.83;;;0.97;;
8098;SDS011;4092;47.876;9.372;2023-02-25T16:21:41;1.00;;;0.90;;
8098;SDS011;4092;47.876;9.372;2023-02-25T16:24:11;1.30;;;1.00;;
8098;SDS011;4092;47.876;9.372;2023-02-25T16:26:41;3.43;;;0.90;;
8098;SDS011;4092;47.876;9.372;2023-02-25T16:29:21;1.10;;;0.80;;
8098;SDS011;4092;47.876;9.372;2023-02-25T16:32:00;1.40;;;1.10;;
8098;SDS011;4092;47.876;9.372;2023-02-25T16:34:32;1.37;;;0.90;;
8098;SDS011;4092;47.876;9.372;2023-02-25T16:37:09;1.33;;;0.87;;
8098;SDS011;4092;47.876;9.372;2023-02-25T16:39:41;1.20;;;0.80;;
8098;SDS011;4092;47.876;9.372;2023-02-25T16:42:09;1.10;;;0.97;;
8098;SDS011;4092;47.876;9.372;2023-02-25T16:44:38;0.90;;;0.70;;
8098;SDS011;4092;47.876;9.372;2023-02-25T16:47:17;1.30;;;1.10;;
8098;SDS011;4092;47.876;9.372;2023-02-25T16:49:48;1.33;;;0.90;;
8098;SDS011;4092;47.876;9.372;2023-02-25T16:52:19;2.00;;;1.83;;
8098;SDS011;4092;47.876;9.372;2023-02-25T16:54:51;1.10;;;0.97;;
8098;SDS011;4092;47.876;9.372;2023-02-25T16:57:21;1.60;;;0.90;;